createdAt,value
2023-05-11T00:00:34.684Z,100693.47
2023-05-11T00:03:01.388Z,100688.22
2023-05-11T00:05:27.989Z,100693.47
2023-05-11T00:07:54.534Z,100692.59
2023-05-11T00:10:21.246Z,100691.72
2023-05-11T00:12:47.793Z,100681.28
2023-05-11T00:15:14.452Z,100676.06
2023-05-11T00:17:43.293Z,100676.94
2023-05-11T00:20:12.356Z,100675.16
2023-05-11T00:22:39.271Z,100669.06
2023-05-11T00:25:06.768Z,100677.78
2023-05-11T00:27:33.450Z,100670.81
2023-05-11T00:30:00.033Z,100679.50
2023-05-11T00:32:26.888Z,100673.47
2023-05-11T00:34:53.454Z,100673.41
2023-05-11T00:37:20.071Z,100668.22
2023-05-11T00:39:46.604Z,100675.19
2023-05-11T00:42:13.189Z,100673.44
2023-05-11T00:44:39.768Z,100678.69
2023-05-11T00:47:07.359Z,100681.28
2023-05-11T00:49:34.158Z,100680.44
2023-05-11T00:52:03.097Z,100676.94
2023-05-11T00:54:30.949Z,100680.44
2023-05-11T00:56:57.586Z,100676.06
2023-05-11T00:59:24.439Z,100676.94
2023-05-11T01:01:51.359Z,100676.06
2023-05-11T01:04:18.102Z,100678.69
2023-05-11T01:07:03.202Z,100680.41
2023-05-11T01:09:29.752Z,100681.25
2023-05-11T01:12:07.497Z,100676.94
2023-05-11T01:14:41.579Z,100686.50
2023-05-11T01:17:15.007Z,100681.28
2023-05-11T01:19:46.939Z,100683.88
2023-05-11T01:22:48.655Z,100686.50
2023-05-11T01:25:34.802Z,100688.28
2023-05-11T01:28:20.465Z,100689.13
2023-05-11T01:30:57.751Z,100686.50
2023-05-11T01:33:33.154Z,100680.41
2023-05-11T01:36:04.454Z,100691.75
2023-05-11T01:38:35.544Z,100683.91
2023-05-11T01:41:12.349Z,100688.25
2023-05-11T01:43:40.841Z,100685.63
2023-05-11T01:46:10.381Z,100690.03
2023-05-11T01:48:40.862Z,100697.84
2023-05-11T01:51:08.929Z,100689.13
2023-05-11T01:53:38.468Z,100693.50
2023-05-11T01:56:06.253Z,100703.94
2023-05-11T01:58:34.533Z,100697.84
2023-05-11T02:01:04.014Z,100703.09
2023-05-11T02:03:35.560Z,100699.56
2023-05-11T02:06:05.383Z,100700.41
2023-05-11T02:08:33.876Z,100703.03
2023-05-11T02:11:02.984Z,100709.19
2023-05-11T02:13:30.635Z,100703.06
2023-05-11T02:16:01.338Z,100703.94
2023-05-11T02:18:30.124Z,100698.72
2023-05-11T02:20:59.086Z,100704.78
2023-05-11T02:23:27.703Z,100708.28
2023-05-11T02:25:55.382Z,100710.00
2023-05-11T02:28:22.508Z,100701.34
2023-05-11T02:30:56.911Z,100703.97
2023-05-11T02:33:30.889Z,100700.44
2023-05-11T02:35:59.255Z,100700.47
2023-05-11T02:38:37.493Z,100699.56
2023-05-11T02:41:11.811Z,100703.06
2023-05-11T02:43:42.351Z,100717.00
2023-05-11T02:46:15.151Z,100708.25
2023-05-11T02:48:45.423Z,100698.72
2023-05-11T02:51:15.938Z,100702.19
2023-05-11T02:53:50.463Z,100702.19
2023-05-11T02:56:17.972Z,100709.16
2023-05-11T02:58:44.544Z,100700.44
2023-05-11T03:01:22.114Z,100712.63
2023-05-11T03:03:48.942Z,100706.56
2023-05-11T03:06:15.811Z,100711.75
2023-05-11T03:08:43.015Z,100710.03
2023-05-11T03:11:12.485Z,100709.13
2023-05-11T03:13:39.323Z,100710.03
2023-05-11T03:16:07.908Z,100709.16
2023-05-11T03:18:36.747Z,100710.88
2023-05-11T03:21:05.149Z,100709.16
2023-05-11T03:23:32.761Z,100703.03
2023-05-11T03:26:00.431Z,100707.41
2023-05-11T03:28:28.719Z,100707.41
2023-05-11T03:31:01.707Z,100710.88
2023-05-11T03:33:30.326Z,100703.06
2023-05-11T03:35:59.983Z,100708.31
2023-05-11T03:38:30.713Z,100707.44
2023-05-11T03:40:58.413Z,100707.41
2023-05-11T03:43:30.045Z,100710.88
2023-05-11T03:45:57.912Z,100703.09
2023-05-11T03:48:26.001Z,100712.66
2023-05-11T03:50:53.127Z,100702.19
2023-05-11T03:53:20.718Z,100710.06
2023-05-11T03:55:48.187Z,100711.81
2023-05-11T03:58:15.038Z,100708.28
2023-05-11T04:00:42.987Z,100699.56
2023-05-11T04:03:09.999Z,100707.41
2023-05-11T04:05:38.241Z,100706.53
2023-05-11T04:08:08.189Z,100708.28
2023-05-11T04:10:35.015Z,100709.16
2023-05-11T04:13:02.351Z,100709.13
2023-05-11T04:15:29.892Z,100712.63
2023-05-11T04:17:56.538Z,100707.41
2023-05-11T04:20:23.104Z,100713.50
2023-05-11T04:22:49.790Z,100701.31
2023-05-11T04:25:16.579Z,100708.31
2023-05-11T04:27:43.238Z,100709.19
2023-05-11T04:30:10.147Z,100713.50
2023-05-11T04:32:36.801Z,100706.53
2023-05-11T04:35:03.891Z,100711.78
2023-05-11T04:37:34.416Z,100710.91
2023-05-11T04:40:04.307Z,100714.41
2023-05-11T04:42:36.154Z,100704.78
2023-05-11T04:45:05.371Z,100713.50
2023-05-11T04:47:31.970Z,100712.63
2023-05-11T04:49:59.297Z,100716.13
2023-05-11T04:52:25.928Z,100718.78
2023-05-11T04:54:53.079Z,100716.16
2023-05-11T04:57:19.860Z,100717.91
2023-05-11T04:59:47.781Z,100720.50
2023-05-11T05:02:14.436Z,100720.50
2023-05-11T05:04:41.001Z,100719.63
2023-05-11T05:07:07.841Z,100716.97
2023-05-11T05:09:34.425Z,100731.84
2023-05-11T05:12:01.575Z,100730.09
2023-05-11T05:14:28.154Z,100726.63
2023-05-11T05:16:54.832Z,100730.94
2023-05-11T05:19:21.822Z,100725.75
2023-05-11T05:21:50.187Z,100724.88
2023-05-11T05:24:16.789Z,100734.47
2023-05-11T05:26:43.483Z,100731.84
2023-05-11T05:29:12.079Z,100737.97
2023-05-11T05:31:38.709Z,100744.06
2023-05-11T05:34:06.556Z,100743.19
2023-05-11T05:36:33.457Z,100739.72
2023-05-11T05:39:00.035Z,100743.16
2023-05-11T05:41:26.972Z,100747.53
2023-05-11T05:43:54.412Z,100744.03
2023-05-11T05:46:21.755Z,100734.44
2023-05-11T05:48:48.787Z,100751.03
2023-05-11T05:51:16.270Z,100747.53
2023-05-11T05:53:43.595Z,100755.41
2023-05-11T05:56:10.197Z,100750.16
2023-05-11T05:58:36.739Z,100754.53
2023-05-11T06:01:03.561Z,100757.13
2023-05-11T06:03:30.305Z,100763.22
2023-05-11T06:05:57.186Z,100770.19
2023-05-11T06:08:24.427Z,100764.97
2023-05-11T06:10:51.021Z,100770.22
2023-05-11T06:13:17.752Z,100766.75
2023-05-11T06:15:44.602Z,100769.34
2023-05-11T06:18:23.221Z,100769.31
2023-05-11T06:20:49.893Z,100777.19
2023-05-11T06:23:17.803Z,100766.72
2023-05-11T06:25:44.739Z,100765.84
2023-05-11T06:28:11.977Z,100771.94
2023-05-11T06:30:39.529Z,100766.69
2023-05-11T06:33:08.523Z,100763.22
2023-05-11T06:35:38.632Z,100765.81
2023-05-11T06:38:08.247Z,100760.59
2023-05-11T06:40:36.300Z,100761.47
2023-05-11T06:43:02.924Z,100765.84
2023-05-11T06:45:45.182Z,100767.56
2023-05-11T06:48:12.289Z,100763.22
2023-05-11T06:50:38.953Z,100764.09
2023-05-11T06:53:05.534Z,100768.47
2023-05-11T06:55:32.412Z,100779.78
2023-05-11T06:57:59.458Z,100779.81
2023-05-11T07:00:26.170Z,100774.56
2023-05-11T07:02:52.934Z,100774.56
2023-05-11T07:05:19.612Z,100771.91
2023-05-11T07:07:46.379Z,100771.88
2023-05-11T07:10:12.953Z,100772.75
2023-05-11T07:12:39.582Z,100769.28
2023-05-11T07:15:07.093Z,100773.69
2023-05-11T07:17:33.720Z,100769.28
2023-05-11T07:20:00.406Z,100777.13
2023-05-11T07:22:26.969Z,100779.72
2023-05-11T07:24:53.601Z,100776.25
2023-05-11T07:27:20.113Z,100781.47
2023-05-11T07:29:46.674Z,100773.59
2023-05-11T07:32:13.233Z,100784.09
2023-05-11T07:34:41.161Z,100778.84
2023-05-11T07:37:08.335Z,100773.56
2023-05-11T07:39:35.125Z,100777.97
2023-05-11T07:42:01.713Z,100774.44
2023-05-11T07:44:28.312Z,100782.34
2023-05-11T07:46:55.057Z,100777.94
2023-05-11T07:49:28.228Z,100781.44
2023-05-11T07:52:06.343Z,100787.50
2023-05-11T07:54:32.985Z,100784.03
2023-05-11T07:57:01.199Z,100784.91
2023-05-11T07:59:27.791Z,100783.22
2023-05-11T08:01:54.814Z,100787.56
2023-05-11T08:04:21.381Z,100783.19
2023-05-11T08:06:48.287Z,100775.34
2023-05-11T08:09:15.340Z,100774.44
2023-05-11T08:11:41.939Z,100773.56
2023-05-11T08:14:08.536Z,100773.56
2023-05-11T08:16:37.041Z,100773.50
2023-05-11T08:19:03.826Z,100771.81
2023-05-11T08:21:30.579Z,100777.00
2023-05-11T08:23:57.131Z,100776.09
2023-05-11T08:26:23.813Z,100777.78
2023-05-11T08:28:52.076Z,100782.13
2023-05-11T08:31:18.900Z,100776.94
2023-05-11T08:33:45.719Z,100778.69
2023-05-11T08:36:15.500Z,100769.91
2023-05-11T08:38:42.177Z,100784.75
2023-05-11T08:41:12.381Z,100780.31
2023-05-11T08:43:40.200Z,100775.94
2023-05-11T08:46:08.626Z,100778.56
2023-05-11T08:48:35.948Z,100778.47
2023-05-11T08:51:04.322Z,100781.22
2023-05-11T08:53:30.958Z,100781.19
2023-05-11T08:55:59.345Z,100785.50
2023-05-11T08:58:27.313Z,100788.00
2023-05-11T09:00:54.834Z,100780.13
2023-05-11T09:03:22.393Z,100787.34
2023-05-11T09:05:49.628Z,100779.28
2023-05-11T09:08:18.682Z,100789.88
2023-05-11T09:10:45.431Z,100793.19
2023-05-11T09:13:12.208Z,100791.28
2023-05-11T09:15:39.046Z,100783.47
2023-05-11T09:18:06.019Z,100790.53
2023-05-11T09:20:34.246Z,100788.78
2023-05-11T09:23:02.255Z,100789.69
2023-05-11T09:25:33.521Z,100791.38
2023-05-11T09:28:00.580Z,100786.09
2023-05-11T09:30:27.638Z,100778.13
2023-05-11T09:32:59.608Z,100778.03
2023-05-11T09:35:30.594Z,100776.31
2023-05-11T09:38:07.824Z,100776.38
2023-05-11T09:40:39.726Z,100783.38
2023-05-11T09:43:21.374Z,100785.22
2023-05-11T09:45:50.019Z,100785.00
2023-05-11T09:48:16.930Z,100777.91
2023-05-11T09:50:43.784Z,100781.44
2023-05-11T09:53:11.089Z,100789.53
2023-05-11T09:55:38.056Z,100781.72
2023-05-11T09:58:04.740Z,100795.00
2023-05-11T10:00:32.140Z,100782.75
2023-05-11T10:03:03.152Z,100789.84
2023-05-11T10:05:31.928Z,100792.63
2023-05-11T10:08:00.902Z,100791.78
2023-05-11T10:10:29.670Z,100785.75
2023-05-11T10:12:58.871Z,100791.94
2023-05-11T10:15:31.905Z,100792.81
2023-05-11T10:18:01.039Z,100782.38
2023-05-11T10:20:27.917Z,100786.75
2023-05-11T10:22:55.993Z,100786.75
2023-05-11T10:25:23.737Z,100788.53
2023-05-11T10:27:51.286Z,100791.09
2023-05-11T10:30:18.215Z,100793.66
2023-05-11T10:32:49.299Z,100788.44
2023-05-11T10:35:16.345Z,100786.72
2023-05-11T10:37:43.392Z,100786.75
2023-05-11T10:40:12.017Z,100784.97
2023-05-11T10:43:13.542Z,100788.44
2023-05-11T10:46:00.342Z,100783.25
2023-05-11T10:49:08.306Z,100782.38
2023-05-11T10:51:44.114Z,100785.88
2023-05-11T10:54:16.803Z,100789.34
2023-05-11T10:57:13.226Z,100787.59
2023-05-11T11:00:08.979Z,100789.28
2023-05-11T11:02:36.103Z,100787.59
2023-05-11T11:05:05.862Z,100793.69
2023-05-11T11:07:32.669Z,100791.03
2023-05-11T11:10:05.094Z,100792.81
2023-05-11T11:12:34.767Z,100797.19
2023-05-11T11:15:06.555Z,100789.28
2023-05-11T11:17:35.393Z,100798.03
2023-05-11T11:20:04.683Z,100794.53
2023-05-11T11:22:34.488Z,100787.53
2023-05-11T11:25:15.012Z,100789.28
2023-05-11T11:27:41.662Z,100791.03
2023-05-11T11:30:19.066Z,100791.81
2023-05-11T11:32:48.072Z,100784.81
2023-05-11T11:35:39.889Z,100787.53
2023-05-11T11:38:29.239Z,100787.50
2023-05-11T11:40:56.311Z,100786.59
2023-05-11T11:43:28.610Z,100797.03
2023-05-11T11:46:00.149Z,100792.66
2023-05-11T11:48:31.257Z,100794.34
2023-05-11T11:51:08.347Z,100784.59
2023-05-11T11:53:38.320Z,100790.91
2023-05-11T11:56:07.496Z,100790.84
2023-05-11T11:58:46.496Z,100792.50
2023-05-11T12:01:24.353Z,100795.97
2023-05-11T12:04:13.623Z,100792.47
2023-05-11T12:06:41.298Z,100798.66
2023-05-11T12:09:08.539Z,100796.16
2023-05-11T12:11:35.309Z,100801.41
2023-05-11T12:14:03.088Z,100797.97
2023-05-11T12:16:29.946Z,100797.03
2023-05-11T12:19:01.543Z,100790.94
2023-05-11T12:21:33.799Z,100796.94
2023-05-11T12:24:03.036Z,100797.72
2023-05-11T12:26:31.536Z,100793.28
2023-05-11T12:29:08.928Z,100793.25
2023-05-11T12:31:40.271Z,100789.75
2023-05-11T12:34:07.240Z,100787.28
2023-05-11T12:36:35.003Z,100791.66
2023-05-11T12:39:01.606Z,100794.28
2023-05-11T12:41:28.224Z,100785.47
2023-05-11T12:43:56.067Z,100777.41
2023-05-11T12:46:23.400Z,100788.91
2023-05-11T12:48:51.561Z,100774.19
2023-05-11T12:51:55.849Z,100780.09
2023-05-11T12:54:27.709Z,100779.19
2023-05-11T12:56:54.416Z,100785.47
2023-05-11T12:59:27.787Z,100784.69
2023-05-11T13:01:54.504Z,100778.47
2023-05-11T13:04:31.330Z,100772.44
2023-05-11T13:06:57.998Z,100772.38
2023-05-11T13:09:25.850Z,100772.38
2023-05-11T13:12:18.929Z,100770.53
2023-05-11T13:14:47.646Z,100768.00
2023-05-11T13:17:29.697Z,100767.09
2023-05-11T13:19:56.305Z,100770.56
2023-05-11T13:22:23.139Z,100766.22
2023-05-11T13:24:50.991Z,100766.03
2023-05-11T13:27:17.662Z,100762.66
2023-05-11T13:29:44.251Z,100765.28
2023-05-11T13:32:12.353Z,100762.66
2023-05-11T13:34:38.894Z,100763.28
2023-05-11T13:37:05.581Z,100771.25
2023-05-11T13:39:32.146Z,100763.44
2023-05-11T13:41:58.862Z,100765.97
2023-05-11T13:44:25.474Z,100763.25
2023-05-11T13:46:52.125Z,100756.31
2023-05-11T13:49:18.737Z,100759.00
2023-05-11T13:51:45.366Z,100764.03
2023-05-11T13:54:13.115Z,100756.31
2023-05-11T13:56:39.826Z,100755.59
2023-05-11T13:59:07.137Z,100758.28
2023-05-11T14:01:33.767Z,100757.41
2023-05-11T14:04:00.466Z,100759.97
2023-05-11T14:06:27.089Z,100763.41
2023-05-11T14:08:53.829Z,100757.22
2023-05-11T14:11:21.462Z,100751.13
2023-05-11T14:13:48.346Z,100748.44
2023-05-11T14:16:15.103Z,100755.31
2023-05-11T14:18:42.204Z,100753.72
2023-05-11T14:21:08.869Z,100748.56
2023-05-11T14:23:37.617Z,100746.06
2023-05-11T14:26:05.650Z,100746.91
2023-05-11T14:28:32.214Z,100747.63
2023-05-11T14:30:58.888Z,100745.06
2023-05-11T14:33:25.855Z,100742.38
2023-05-11T14:35:53.830Z,100744.94
2023-05-11T14:38:20.488Z,100751.22
2023-05-11T14:40:47.702Z,100750.28
2023-05-11T14:43:14.386Z,100743.22
2023-05-11T14:45:41.394Z,100744.03
2023-05-11T14:48:08.265Z,100742.25
2023-05-11T14:50:34.933Z,100745.69
2023-05-11T14:53:01.848Z,100743.88
2023-05-11T14:55:30.543Z,100746.44
2023-05-11T14:57:57.389Z,100743.00
2023-05-11T15:00:23.944Z,100740.38
2023-05-11T15:02:52.025Z,100743.03
2023-05-11T15:05:18.809Z,100748.44
2023-05-11T15:07:45.628Z,100745.00
2023-05-11T15:10:14.846Z,100742.38
2023-05-11T15:12:41.581Z,100744.88
2023-05-11T15:15:08.847Z,100748.31
2023-05-11T15:17:36.177Z,100757.31
2023-05-11T15:20:03.156Z,100748.75
2023-05-11T15:22:29.767Z,100751.31
2023-05-11T15:24:56.324Z,100751.28
2023-05-11T15:27:22.863Z,100753.13
2023-05-11T15:29:49.562Z,100755.59
2023-05-11T15:32:17.470Z,100755.66
2023-05-11T15:34:54.955Z,100752.94
2023-05-11T15:37:23.667Z,100759.16
2023-05-11T15:39:51.331Z,100755.59
2023-05-11T15:42:17.916Z,100752.97
2023-05-11T15:44:44.501Z,100759.06
2023-05-11T15:47:11.126Z,100766.88
2023-05-11T15:49:37.721Z,100758.19
2023-05-11T15:52:04.829Z,100759.00
2023-05-11T15:54:31.727Z,100758.88
2023-05-11T15:56:59.174Z,100751.88
2023-05-11T15:59:25.796Z,100759.94
2023-05-11T16:01:53.233Z,100752.84
2023-05-11T16:04:19.801Z,100758.13
2023-05-11T16:06:46.524Z,100759.00
2023-05-11T16:09:13.104Z,100757.31
2023-05-11T16:11:40.670Z,100766.00
2023-05-11T16:14:07.311Z,100752.09
2023-05-11T16:16:33.997Z,100764.41
2023-05-11T16:19:00.752Z,100752.09
2023-05-11T16:21:27.365Z,100754.94
2023-05-11T16:23:54.293Z,100759.19
2023-05-11T16:26:20.936Z,100757.44
2023-05-11T16:28:47.548Z,100760.13
2023-05-11T16:31:15.429Z,100760.13
2023-05-11T16:33:42.125Z,100754.88
2023-05-11T16:36:08.996Z,100751.53
2023-05-11T16:38:35.823Z,100757.59
2023-05-11T16:41:02.449Z,100753.22
2023-05-11T16:43:29.164Z,100757.59
2023-05-11T16:45:55.828Z,100757.59
2023-05-11T16:48:22.449Z,100757.66
2023-05-11T16:50:49.380Z,100757.59
2023-05-11T16:53:15.966Z,100753.31
2023-05-11T16:55:42.594Z,100756.00
2023-05-11T16:58:09.680Z,100756.97
2023-05-11T17:00:36.599Z,100756.91
2023-05-11T17:03:03.310Z,100754.34
2023-05-11T17:05:30.215Z,100756.84
2023-05-11T17:07:56.834Z,100753.31
2023-05-11T17:10:23.530Z,100755.03
2023-05-11T17:12:50.191Z,100752.47
2023-05-11T17:15:17.033Z,100756.78
2023-05-11T17:17:43.622Z,100753.28
2023-05-11T17:20:13.543Z,100750.84
2023-05-11T17:22:40.192Z,100757.84
2023-05-11T17:25:07.211Z,100749.06
2023-05-11T17:27:36.337Z,100753.41
2023-05-11T17:30:04.359Z,100754.34
2023-05-11T17:32:31.476Z,100763.09
2023-05-11T17:34:58.412Z,100756.97
2023-05-11T17:37:31.838Z,100763.09
2023-05-11T17:40:00.161Z,100759.72
2023-05-11T17:42:27.021Z,100760.56
2023-05-11T17:44:54.387Z,100763.13
2023-05-11T17:47:21.196Z,100765.75
2023-05-11T17:49:47.824Z,100764.91
2023-05-11T17:52:15.123Z,100761.41
2023-05-11T17:54:42.179Z,100757.91
2023-05-11T17:57:08.807Z,100762.25
2023-05-11T17:59:35.402Z,100767.53
2023-05-11T18:02:02.019Z,100761.41
2023-05-11T18:04:29.744Z,100757.94
2023-05-11T18:06:56.386Z,100759.72
2023-05-11T18:09:23.011Z,100764.03
2023-05-11T18:11:49.621Z,100762.25
2023-05-11T18:14:16.566Z,100760.56
2023-05-11T18:16:43.463Z,100758.81
2023-05-11T18:19:10.440Z,100761.44
2023-05-11T18:21:37.980Z,100764.97
2023-05-11T18:24:04.905Z,100765.84
2023-05-11T18:26:31.674Z,100769.31
2023-05-11T18:28:59.573Z,100771.03
2023-05-11T18:31:26.250Z,100766.69
2023-05-11T18:33:52.872Z,100771.91
2023-05-11T18:36:19.544Z,100778.06
2023-05-11T18:38:48.743Z,100772.84
2023-05-11T18:41:15.479Z,100778.94
2023-05-11T18:43:45.300Z,100778.03
2023-05-11T18:46:11.854Z,100780.66
2023-05-11T18:48:39.109Z,100775.41
2023-05-11T18:51:06.420Z,100780.69
2023-05-11T18:53:33.339Z,100782.44
2023-05-11T18:56:00.002Z,100790.28
2023-05-11T18:58:27.094Z,100789.41
2023-05-11T19:00:53.762Z,100791.13
2023-05-11T19:03:21.924Z,100792.88
2023-05-11T19:05:49.467Z,100791.13
2023-05-11T19:08:16.634Z,100786.78
2023-05-11T19:10:45.178Z,100787.66
2023-05-11T19:13:12.993Z,100789.38
2023-05-11T19:15:40.226Z,100794.63
2023-05-11T19:18:07.109Z,100790.28
2023-05-11T19:20:34.763Z,100792.88
2023-05-11T19:23:01.795Z,100795.50
2023-05-11T19:25:28.475Z,100799.88
2023-05-11T19:27:57.156Z,100796.38
2023-05-11T19:30:24.675Z,100789.41
2023-05-11T19:32:51.328Z,100785.91
2023-05-11T19:35:19.027Z,100781.53
2023-05-11T19:37:48.027Z,100776.31
2023-05-11T19:42:46.000Z,100788.50
2023-05-11T19:45:15.598Z,100786.78
2023-05-11T19:47:42.227Z,100790.28
2023-05-11T19:50:09.245Z,100792.00
2023-05-11T19:52:36.759Z,100785.03
2023-05-11T19:55:04.413Z,100790.28
2023-05-11T19:57:37.026Z,100789.38
2023-05-11T20:00:05.579Z,100782.41
2023-05-11T20:02:32.599Z,100793.75
2023-05-11T20:04:59.872Z,100796.38
2023-05-11T20:07:27.528Z,100798.13
2023-05-11T20:09:54.842Z,100783.28
2023-05-11T20:12:21.458Z,100789.41
2023-05-11T20:14:48.174Z,100795.50
2023-05-11T20:17:14.848Z,100803.34
2023-05-11T20:19:41.604Z,100804.22
2023-05-11T20:22:08.180Z,100804.22
2023-05-11T20:24:34.748Z,100796.38
2023-05-11T20:27:05.639Z,100803.34
2023-05-11T20:29:32.221Z,100814.69
2023-05-11T20:31:58.856Z,100808.56
2023-05-11T20:34:25.501Z,100810.31
2023-05-11T20:36:53.938Z,100806.84
2023-05-11T20:39:21.978Z,100805.09
2023-05-11T20:41:50.068Z,100801.59
2023-05-11T20:44:17.642Z,100806.84
2023-05-11T20:46:44.574Z,100805.97
2023-05-11T20:49:16.722Z,100808.59
2023-05-11T20:51:51.247Z,100803.34
2023-05-11T20:54:18.102Z,100808.56
2023-05-11T20:56:44.682Z,100812.94
2023-05-11T21:00:03.830Z,100814.69
2023-05-11T21:01:59.256Z,100803.34
2023-05-11T21:04:26.034Z,100812.94
2023-05-11T21:06:55.567Z,100818.16
2023-05-11T21:09:21.996Z,100814.66
2023-05-11T21:11:48.977Z,100817.31
2023-05-11T21:14:15.790Z,100816.41
2023-05-11T21:16:42.783Z,100813.81
2023-05-11T21:19:09.593Z,100812.94
2023-05-11T21:21:36.272Z,100810.31
2023-05-11T21:24:03.896Z,100814.72
2023-05-11T21:26:30.486Z,100819.06
2023-05-11T21:28:57.354Z,100819.03
2023-05-11T21:31:24.075Z,100821.66
2023-05-11T21:33:51.842Z,100817.28
2023-05-11T21:36:18.591Z,100815.56
2023-05-11T21:38:45.238Z,100815.56
2023-05-11T21:41:11.909Z,100811.19
2023-05-11T21:43:38.459Z,100813.81
2023-05-11T21:46:05.263Z,100814.69
2023-05-11T21:48:31.960Z,100813.81
2023-05-11T21:50:58.536Z,100805.94
2023-05-11T21:53:25.096Z,100817.31
2023-05-11T21:55:51.649Z,100805.09
2023-05-11T21:58:18.278Z,100813.81
2023-05-11T22:00:45.278Z,100810.31
2023-05-11T22:03:12.096Z,100817.31
2023-05-11T22:05:38.771Z,100819.03
2023-05-11T22:08:14.066Z,100819.94
2023-05-11T22:10:42.894Z,100820.78
2023-05-11T22:13:09.530Z,100827.78
2023-05-11T22:15:36.274Z,100826.88
2023-05-11T22:18:03.559Z,100831.25
2023-05-11T22:20:31.671Z,100833.88
2023-05-11T22:22:59.118Z,100834.75
2023-05-11T22:25:25.914Z,100830.38
2023-05-11T22:27:52.639Z,100831.25
2023-05-11T22:30:19.912Z,100828.66
2023-05-11T22:32:47.201Z,100829.50
2023-05-11T22:35:13.905Z,100829.53
2023-05-11T22:37:40.470Z,100830.38
2023-05-11T22:40:07.740Z,100826.88
2023-05-11T22:42:34.729Z,100831.19
2023-05-11T22:45:01.341Z,100835.59
2023-05-11T22:47:28.037Z,100835.59
2023-05-11T22:49:54.883Z,100840.84
2023-05-11T22:52:22.625Z,100842.56
2023-05-11T22:54:55.240Z,100844.31
2023-05-11T22:57:23.900Z,100843.44
2023-05-11T22:59:50.648Z,100837.34
2023-05-11T23:02:17.317Z,100844.28
2023-05-11T23:04:44.306Z,100839.94
2023-05-11T23:07:12.718Z,100832.94
2023-05-11T23:09:39.398Z,100837.31
2023-05-11T23:12:06.243Z,100832.97
2023-05-11T23:14:32.815Z,100836.44
2023-05-11T23:16:59.470Z,100829.41
2023-05-11T23:19:26.209Z,100833.81
2023-05-11T23:21:53.106Z,100831.22
2023-05-11T23:24:19.666Z,100825.09
2023-05-11T23:26:46.293Z,100835.53
2023-05-11T23:29:12.899Z,100832.91
2023-05-11T23:31:42.789Z,100827.72
2023-05-11T23:34:09.433Z,100826.84
2023-05-11T23:36:36.025Z,100833.81
2023-05-11T23:39:02.628Z,100820.75
2023-05-11T23:41:29.281Z,100833.84
2023-05-11T23:43:55.877Z,100834.72
2023-05-11T23:46:22.393Z,100845.16
2023-05-11T23:48:48.987Z,100840.81
2023-05-11T23:51:16.504Z,100837.31
2023-05-11T23:53:43.227Z,100844.28
2023-05-11T23:56:09.948Z,100839.91
2023-05-11T23:58:36.504Z,100851.16
